createdAt,value
2023-03-29T00:00:30.674Z,87742.19
2023-03-29T00:02:57.964Z,87745.44
2023-03-29T00:05:25.337Z,87739.47
2023-03-29T00:07:52.803Z,87742.84
2023-03-29T00:10:22.239Z,87742.38
2023-03-29T00:12:50.468Z,87745.88
2023-03-29T00:15:17.782Z,87749.06
2023-03-29T00:17:45.330Z,87758.41
2023-03-29T00:20:12.805Z,87749.56
2023-03-29T00:22:41.645Z,87754.44
2023-03-29T00:25:11.431Z,87758.53
2023-03-29T00:27:39.714Z,87753.66
2023-03-29T00:30:09.530Z,87752.28
2023-03-29T00:32:37.922Z,87752.00
2023-03-29T00:35:05.658Z,87758.41
2023-03-29T00:37:33.578Z,87752.16
2023-03-29T00:40:01.144Z,87743.88
2023-03-29T00:42:28.580Z,87742.94
2023-03-29T00:45:09.836Z,87738.63
2023-03-29T00:47:46.763Z,87741.69
2023-03-29T00:50:18.888Z,87746.56
2023-03-29T00:52:55.280Z,87741.84
2023-03-29T00:55:27.801Z,87739.69
2023-03-29T00:57:58.718Z,87742.47
2023-03-29T01:00:37.172Z,87762.06
2023-03-29T01:03:12.689Z,87761.72
2023-03-29T01:05:47.811Z,87745.94
2023-03-29T01:08:24.241Z,87757.56
2023-03-29T01:11:19.720Z,87772.56
2023-03-29T01:14:27.219Z,87772.53
2023-03-29T01:16:54.613Z,87765.28
2023-03-29T01:19:28.657Z,87769.44
2023-03-29T01:22:07.613Z,87772.47
2023-03-29T01:24:34.718Z,87771.88
2023-03-29T01:27:29.369Z,87769.09
2023-03-29T01:30:05.350Z,87767.06
2023-03-29T01:32:50.266Z,87764.34
2023-03-29T01:35:41.541Z,87752.22
2023-03-29T01:38:45.932Z,87766.91
2023-03-29T01:41:13.319Z,87769.50
2023-03-29T01:44:03.405Z,87759.09
2023-03-29T01:47:00.738Z,87769.19
2023-03-29T01:49:42.433Z,87778.53
2023-03-29T01:52:25.326Z,87764.88
2023-03-29T01:55:06.274Z,87764.69
2023-03-29T01:57:35.859Z,87754.00
2023-03-29T02:00:04.760Z,87757.78
2023-03-29T02:02:33.173Z,87751.84
2023-03-29T02:05:01.298Z,87746.44
2023-03-29T02:07:31.130Z,87740.63
2023-03-29T02:09:59.417Z,87736.19
2023-03-29T02:12:26.767Z,87727.75
2023-03-29T02:14:53.889Z,87734.91
2023-03-29T02:17:25.978Z,87726.34
2023-03-29T02:20:01.786Z,87728.94
2023-03-29T02:22:40.416Z,87733.84
2023-03-29T02:25:08.734Z,87724.22
2023-03-29T02:27:36.464Z,87714.97
2023-03-29T02:30:06.825Z,87729.53
2023-03-29T02:32:50.017Z,87721.72
2023-03-29T02:35:58.671Z,87726.16
2023-03-29T02:38:28.176Z,87712.38
2023-03-29T02:40:58.475Z,87712.69
2023-03-29T02:43:29.034Z,87708.25
2023-03-29T02:45:56.824Z,87700.91
2023-03-29T02:48:28.369Z,87693.97
2023-03-29T02:51:03.585Z,87713.72
2023-03-29T02:53:45.108Z,87699.94
2023-03-29T02:56:13.504Z,87696.56
2023-03-29T02:58:41.078Z,87702.88
2023-03-29T03:01:09.239Z,87701.78
2023-03-29T03:03:37.011Z,87698.22
2023-03-29T03:06:05.066Z,87690.41
2023-03-29T03:08:32.335Z,87669.59
2023-03-29T03:10:59.665Z,87678.19
2023-03-29T03:13:27.186Z,87669.59
2023-03-29T03:15:54.457Z,87668.22
2023-03-29T03:18:21.737Z,87683.50
2023-03-29T03:20:59.989Z,87689.78
2023-03-29T03:23:27.628Z,87702.81
2023-03-29T03:25:55.075Z,87697.16
2023-03-29T03:28:23.871Z,87699.44
2023-03-29T03:30:51.403Z,87694.88
2023-03-29T03:33:18.812Z,87694.13
2023-03-29T03:35:46.370Z,87701.16
2023-03-29T03:38:13.675Z,87695.63
2023-03-29T03:40:40.958Z,87695.34
2023-03-29T03:43:08.229Z,87697.34
2023-03-29T03:45:35.484Z,87701.00
2023-03-29T03:48:02.867Z,87687.72
2023-03-29T03:50:30.089Z,87689.97
2023-03-29T03:52:57.364Z,87680.34
2023-03-29T03:55:24.737Z,87680.66
2023-03-29T03:57:51.954Z,87691.06
2023-03-29T04:00:19.366Z,87683.28
2023-03-29T04:02:51.631Z,87689.53
2023-03-29T04:05:19.425Z,87683.75
2023-03-29T04:07:47.229Z,87679.75
2023-03-29T04:10:14.483Z,87677.16
2023-03-29T04:12:41.775Z,87686.81
2023-03-29T04:15:09.973Z,87684.97
2023-03-29T04:17:37.819Z,87683.75
2023-03-29T04:20:06.812Z,87682.78
2023-03-29T04:22:33.976Z,87683.44
2023-03-29T04:25:01.232Z,87695.38
2023-03-29T04:27:28.419Z,87693.53
2023-03-29T04:29:55.676Z,87692.16
2023-03-29T04:32:22.900Z,87708.59
2023-03-29T04:34:50.199Z,87708.78
2023-03-29T04:37:17.559Z,87696.47
2023-03-29T04:39:44.789Z,87706.53
2023-03-29T04:42:11.999Z,87698.75
2023-03-29T04:44:39.272Z,87705.59
2023-03-29T04:47:07.519Z,87709.75
2023-03-29T04:49:34.757Z,87702.66
2023-03-29T04:52:01.940Z,87710.94
2023-03-29T04:54:29.195Z,87713.56
2023-03-29T04:56:56.495Z,87709.91
2023-03-29T04:59:23.738Z,87698.91
2023-03-29T05:01:51.051Z,87695.09
2023-03-29T05:04:18.294Z,87689.72
2023-03-29T05:06:45.565Z,87714.25
2023-03-29T05:09:12.893Z,87715.63
2023-03-29T05:11:40.084Z,87690.38
2023-03-29T05:14:07.578Z,87688.94
2023-03-29T05:16:35.298Z,87671.38
2023-03-29T05:19:03.019Z,87674.88
2023-03-29T05:21:30.285Z,87664.78
2023-03-29T05:23:57.503Z,87671.94
2023-03-29T05:26:24.987Z,87666.13
2023-03-29T05:28:52.268Z,87675.66
2023-03-29T05:31:19.924Z,87676.97
2023-03-29T05:33:51.428Z,87670.69
2023-03-29T05:36:19.577Z,87654.44
2023-03-29T05:38:46.814Z,87662.22
2023-03-29T05:41:15.581Z,87663.31
2023-03-29T05:43:42.781Z,87656.41
2023-03-29T05:46:10.083Z,87656.84
2023-03-29T05:48:37.358Z,87652.84
2023-03-29T05:51:05.344Z,87655.56
2023-03-29T05:53:32.558Z,87653.84
2023-03-29T05:55:59.810Z,87656.91
2023-03-29T05:58:27.441Z,87656.28
2023-03-29T06:00:55.270Z,87658.41
2023-03-29T06:03:25.010Z,87664.19
2023-03-29T06:06:08.967Z,87661.25
2023-03-29T06:08:37.451Z,87667.06
2023-03-29T06:11:07.249Z,87651.28
2023-03-29T06:13:34.897Z,87670.59
2023-03-29T06:16:02.127Z,87669.50
2023-03-29T06:18:29.358Z,87665.84
2023-03-29T06:20:56.633Z,87655.34
2023-03-29T06:23:24.128Z,87665.47
2023-03-29T06:25:51.643Z,87663.72
2023-03-29T06:28:19.886Z,87654.38
2023-03-29T06:30:48.106Z,87650.56
2023-03-29T06:33:16.064Z,87656.88
2023-03-29T06:35:47.214Z,87664.03
2023-03-29T06:38:14.447Z,87667.81
2023-03-29T06:40:42.189Z,87657.94
2023-03-29T06:43:09.379Z,87661.44
2023-03-29T06:45:38.896Z,87653.75
2023-03-29T06:48:08.079Z,87657.22
2023-03-29T06:50:36.081Z,87664.22
2023-03-29T06:53:04.538Z,87663.75
2023-03-29T06:55:31.783Z,87678.63
2023-03-29T06:58:00.938Z,87674.75
2023-03-29T07:00:30.329Z,87674.84
2023-03-29T07:02:58.740Z,87673.16
2023-03-29T07:05:29.331Z,87678.13
2023-03-29T07:07:56.567Z,87680.25
2023-03-29T07:10:30.629Z,87677.84
2023-03-29T07:12:59.021Z,87678.84
2023-03-29T07:15:26.885Z,87684.63
2023-03-29T07:17:54.975Z,87677.34
2023-03-29T07:20:22.290Z,87681.16
2023-03-29T07:22:50.707Z,87680.50
2023-03-29T07:25:20.299Z,87674.09
2023-03-29T07:27:48.420Z,87666.25
2023-03-29T07:30:20.373Z,87663.47
2023-03-29T07:32:47.855Z,87670.59
2023-03-29T07:35:15.857Z,87670.19
2023-03-29T07:37:44.084Z,87674.53
2023-03-29T07:40:15.216Z,87673.91
2023-03-29T07:42:44.875Z,87681.06
2023-03-29T07:45:14.329Z,87683.00
2023-03-29T07:47:41.876Z,87679.09
2023-03-29T07:50:10.555Z,87676.38
2023-03-29T07:52:38.551Z,87670.19
2023-03-29T07:55:11.218Z,87664.75
2023-03-29T07:57:38.955Z,87670.09
2023-03-29T08:00:08.194Z,87662.47
2023-03-29T08:02:35.396Z,87655.41
2023-03-29T08:05:02.628Z,87645.81
2023-03-29T08:07:29.929Z,87643.41
2023-03-29T08:09:57.586Z,87643.53
2023-03-29T08:12:25.128Z,87637.97
2023-03-29T08:14:52.476Z,87641.56
2023-03-29T08:17:19.619Z,87643.25
2023-03-29T08:19:50.969Z,87630.28
2023-03-29T08:22:18.763Z,87641.25
2023-03-29T08:24:45.968Z,87635.78
2023-03-29T08:27:13.192Z,87635.75
2023-03-29T08:29:40.380Z,87621.13
2023-03-29T08:32:07.582Z,87618.28
2023-03-29T08:34:34.855Z,87623.81
2023-03-29T08:37:03.216Z,87617.59
2023-03-29T08:39:31.045Z,87616.03
2023-03-29T08:42:45.456Z,87624.81
2023-03-29T08:45:27.677Z,87631.75
2023-03-29T08:48:05.087Z,87627.94
2023-03-29T08:50:47.309Z,87641.44
2023-03-29T08:53:29.784Z,87633.97
2023-03-29T08:56:02.674Z,87621.84
2023-03-29T08:58:34.654Z,87627.91
2023-03-29T09:01:07.201Z,87623.22
2023-03-29T09:03:56.074Z,87633.56
2023-03-29T09:06:23.468Z,87631.53
2023-03-29T09:08:53.262Z,87634.34
2023-03-29T09:12:06.553Z,87617.31
2023-03-29T09:15:14.001Z,87617.03
2023-03-29T09:18:00.987Z,87620.81
2023-03-29T09:20:58.983Z,87609.03
2023-03-29T09:24:02.397Z,87614.31
2023-03-29T09:26:51.895Z,87617.09
2023-03-29T09:30:19.052Z,87607.41
2023-03-29T09:33:12.643Z,87604.66
2023-03-29T09:35:59.516Z,87593.59
2023-03-29T09:38:30.716Z,87609.44
2023-03-29T09:41:12.809Z,87603.53
2023-03-29T09:43:44.320Z,87613.06
2023-03-29T09:46:28.456Z,87615.66
2023-03-29T09:48:57.062Z,87622.81
2023-03-29T09:51:29.972Z,87620.44
2023-03-29T09:53:58.056Z,87607.13
2023-03-29T09:56:25.338Z,87599.94
2023-03-29T09:58:52.699Z,87599.81
2023-03-29T10:01:20.113Z,87603.38
2023-03-29T10:03:54.112Z,87597.88
2023-03-29T10:06:24.691Z,87599.19
2023-03-29T10:08:55.466Z,87600.75
2023-03-29T10:11:35.244Z,87600.00
2023-03-29T10:14:14.516Z,87594.47
2023-03-29T10:16:47.844Z,87605.97
2023-03-29T10:19:28.437Z,87594.06
2023-03-29T10:21:58.970Z,87587.91
2023-03-29T10:24:27.854Z,87597.03
2023-03-29T10:27:01.301Z,87590.25
2023-03-29T10:29:38.814Z,87581.59
2023-03-29T10:32:33.781Z,87590.28
2023-03-29T10:35:30.431Z,87577.94
2023-03-29T10:38:00.201Z,87574.78
2023-03-29T10:40:35.032Z,87570.31
2023-03-29T10:43:26.872Z,87558.91
2023-03-29T10:46:12.374Z,87562.72
2023-03-29T10:48:47.507Z,87561.63
2023-03-29T10:51:18.645Z,87549.63
2023-03-29T10:53:46.884Z,87554.44
2023-03-29T10:56:38.453Z,87554.34
2023-03-29T10:59:29.434Z,87547.41
2023-03-29T11:02:14.906Z,87544.44
2023-03-29T11:04:49.889Z,87549.09
2023-03-29T11:07:29.632Z,87548.34
2023-03-29T11:10:50.744Z,87550.75
2023-03-29T11:13:24.127Z,87547.13
2023-03-29T11:16:15.948Z,87545.66
2023-03-29T11:19:01.107Z,87534.88
2023-03-29T11:21:34.310Z,87530.59
2023-03-29T11:24:38.262Z,87522.44
2023-03-29T11:27:39.957Z,87515.91
2023-03-29T11:30:38.107Z,87522.19
2023-03-29T11:33:16.751Z,87524.78
2023-03-29T11:36:11.942Z,87526.56
2023-03-29T11:39:25.765Z,87524.84
2023-03-29T11:42:03.848Z,87518.63
2023-03-29T11:44:31.802Z,87518.44
2023-03-29T11:47:37.620Z,87517.81
2023-03-29T11:50:42.908Z,87504.91
2023-03-29T11:53:25.214Z,87508.63
2023-03-29T11:55:55.483Z,87507.53
2023-03-29T11:58:38.888Z,87517.81
2023-03-29T12:01:33.474Z,87517.28
2023-03-29T12:04:10.617Z,87515.75
2023-03-29T12:06:45.805Z,87515.31
2023-03-29T12:09:39.913Z,87515.34
2023-03-29T12:12:22.838Z,87506.91
2023-03-29T12:15:21.558Z,87508.16
2023-03-29T12:18:15.959Z,87509.16
2023-03-29T12:20:49.737Z,87508.94
2023-03-29T12:23:18.411Z,87503.34
2023-03-29T12:26:20.388Z,87501.03
2023-03-29T12:29:36.126Z,87504.41
2023-03-29T12:32:32.720Z,87498.19
2023-03-29T12:35:35.589Z,87509.38
2023-03-29T12:38:41.034Z,87504.59
2023-03-29T12:41:20.757Z,87506.16
2023-03-29T12:43:49.174Z,87497.06
2023-03-29T12:46:31.853Z,87509.44
2023-03-29T12:49:11.138Z,87506.91
2023-03-29T12:51:42.822Z,87506.06
2023-03-29T12:54:20.301Z,87509.13
2023-03-29T12:56:55.068Z,87502.31
2023-03-29T12:59:48.800Z,87506.72
2023-03-29T13:02:16.096Z,87506.31
2023-03-29T13:04:43.256Z,87506.38
2023-03-29T13:07:33.429Z,87503.44
2023-03-29T13:10:10.467Z,87495.25
2023-03-29T13:12:48.001Z,87491.16
2023-03-29T13:15:15.088Z,87495.28
2023-03-29T13:18:00.140Z,87491.50
2023-03-29T13:20:42.517Z,87485.22
2023-03-29T13:23:53.450Z,87484.69
2023-03-29T13:26:46.738Z,87461.94
2023-03-29T13:30:10.660Z,87450.31
2023-03-29T13:33:03.538Z,87454.41
2023-03-29T13:35:36.312Z,87452.56
2023-03-29T13:38:22.617Z,87443.00
2023-03-29T13:40:52.792Z,87445.28
2023-03-29T13:43:20.155Z,87450.06
2023-03-29T13:45:59.195Z,87446.16
2023-03-29T13:48:29.181Z,87439.53
2023-03-29T13:50:58.838Z,87427.88
2023-03-29T13:53:25.933Z,87435.25
2023-03-29T13:55:57.981Z,87433.84
2023-03-29T13:58:57.651Z,87423.50
2023-03-29T14:01:52.760Z,87432.00
2023-03-29T14:04:27.806Z,87430.06
2023-03-29T14:06:58.018Z,87435.13
2023-03-29T14:09:34.645Z,87413.81
2023-03-29T14:12:02.642Z,87415.84
2023-03-29T14:14:32.087Z,87408.47
2023-03-29T14:17:02.168Z,87406.47
2023-03-29T14:19:35.097Z,87398.50
2023-03-29T14:22:09.263Z,87399.38
2023-03-29T14:24:46.087Z,87404.78
2023-03-29T14:27:13.662Z,87409.22
2023-03-29T14:29:40.911Z,87404.31
2023-03-29T14:32:13.534Z,87395.78
2023-03-29T14:34:41.069Z,87394.66
2023-03-29T14:37:13.970Z,87390.25
2023-03-29T14:39:41.380Z,87388.44
2023-03-29T14:42:21.387Z,87390.31
2023-03-29T14:44:50.908Z,87388.56
2023-03-29T14:47:31.077Z,87397.25
2023-03-29T14:50:00.143Z,87386.28
2023-03-29T14:52:30.808Z,87390.63
2023-03-29T14:55:02.113Z,87391.88
2023-03-29T14:57:36.300Z,87398.63
2023-03-29T15:00:41.228Z,87392.25
2023-03-29T15:03:15.504Z,87393.53
2023-03-29T15:05:51.312Z,87391.44
2023-03-29T15:08:33.528Z,87395.38
2023-03-29T15:11:02.062Z,87397.47
2023-03-29T15:13:30.751Z,87395.56
2023-03-29T15:16:04.458Z,87402.66
2023-03-29T15:18:38.290Z,87404.75
2023-03-29T15:21:07.905Z,87407.47
2023-03-29T15:23:54.822Z,87408.06
2023-03-29T15:26:32.229Z,87397.66
2023-03-29T15:29:16.715Z,87401.47
2023-03-29T15:31:56.371Z,87399.84
2023-03-29T15:34:29.771Z,87395.13
2023-03-29T15:36:59.692Z,87397.13
2023-03-29T15:39:29.062Z,87399.34
2023-03-29T15:41:57.966Z,87407.09
2023-03-29T15:44:33.476Z,87403.69
2023-03-29T15:47:00.988Z,87410.66
2023-03-29T15:49:28.207Z,87417.31
2023-03-29T15:51:55.562Z,87429.16
2023-03-29T15:54:23.453Z,87419.09
2023-03-29T15:57:01.377Z,87424.97
2023-03-29T15:59:30.248Z,87423.53
2023-03-29T16:01:58.564Z,87436.06
2023-03-29T16:04:26.297Z,87431.19
2023-03-29T16:06:56.018Z,87436.13
2023-03-29T16:09:24.398Z,87430.47
2023-03-29T16:11:51.595Z,87443.78
2023-03-29T16:14:28.506Z,87441.94
2023-03-29T16:16:57.408Z,87441.25
2023-03-29T16:19:26.631Z,87445.78
2023-03-29T16:21:54.772Z,87446.59
2023-03-29T16:24:27.574Z,87448.91
2023-03-29T16:26:56.519Z,87443.69
2023-03-29T16:29:25.190Z,87450.84
2023-03-29T16:31:53.738Z,87452.00
2023-03-29T16:34:22.799Z,87447.84
2023-03-29T16:36:51.042Z,87459.22
2023-03-29T16:39:18.327Z,87460.31
2023-03-29T16:41:46.209Z,87454.31
2023-03-29T16:44:22.953Z,87461.50
2023-03-29T16:46:54.231Z,87463.00
2023-03-29T16:49:21.903Z,87458.13
2023-03-29T16:51:49.060Z,87461.13
2023-03-29T16:54:17.737Z,87466.00
2023-03-29T16:56:45.269Z,87471.31
2023-03-29T16:59:13.157Z,87465.66
2023-03-29T17:01:40.439Z,87472.06
2023-03-29T17:04:08.846Z,87463.03
2023-03-29T17:06:36.312Z,87456.97
2023-03-29T17:09:04.578Z,87463.78
2023-03-29T17:11:31.872Z,87461.13
2023-03-29T17:13:59.469Z,87460.75
2023-03-29T17:16:26.764Z,87456.97
2023-03-29T17:18:54.053Z,87460.78
2023-03-29T17:21:21.196Z,87470.97
2023-03-29T17:23:48.392Z,87460.75
2023-03-29T17:26:15.797Z,87463.81
2023-03-29T17:28:42.943Z,87463.81
2023-03-29T17:31:10.144Z,87475.13
2023-03-29T17:33:37.881Z,87473.59
2023-03-29T17:36:06.728Z,87471.34
2023-03-29T17:38:34.553Z,87466.03
2023-03-29T17:41:01.807Z,87476.59
2023-03-29T17:43:28.963Z,87482.22
2023-03-29T17:45:56.709Z,87486.75
2023-03-29T17:48:24.968Z,87492.34
2023-03-29T17:50:54.680Z,87486.28
2023-03-29T17:53:22.046Z,87494.56
2023-03-29T17:55:49.252Z,87496.00
2023-03-29T17:58:16.565Z,87499.72
2023-03-29T18:00:43.906Z,87510.22
2023-03-29T18:03:11.790Z,87519.94
2023-03-29T18:05:39.082Z,87512.00
2023-03-29T18:08:06.526Z,87518.34
2023-03-29T18:10:33.782Z,87522.44
2023-03-29T18:13:01.017Z,87523.53
2023-03-29T18:15:28.359Z,87525.34
2023-03-29T18:17:55.495Z,87526.03
2023-03-29T18:20:23.427Z,87536.53
2023-03-29T18:22:50.603Z,87544.94
2023-03-29T18:25:17.932Z,87545.69
2023-03-29T18:27:45.503Z,87548.34
2023-03-29T18:30:13.007Z,87562.56
2023-03-29T18:32:40.212Z,87564.38
2023-03-29T18:35:08.412Z,87570.38
2023-03-29T18:37:35.636Z,87571.47
2023-03-29T18:40:02.836Z,87574.84
2023-03-29T18:42:30.087Z,87582.00
2023-03-29T18:44:57.273Z,87577.13
2023-03-29T18:47:24.519Z,87585.41
2023-03-29T18:49:51.711Z,87589.97
2023-03-29T18:52:19.062Z,87583.19
2023-03-29T18:54:46.283Z,87592.94
2023-03-29T18:57:13.612Z,87595.56
2023-03-29T18:59:40.840Z,87595.94
2023-03-29T19:02:08.335Z,87594.03
2023-03-29T19:04:35.785Z,87595.94
2023-03-29T19:07:03.246Z,87597.78
2023-03-29T19:09:30.560Z,87597.34
2023-03-29T19:11:57.911Z,87591.28
2023-03-29T19:14:25.583Z,87602.59
2023-03-29T19:16:53.349Z,87602.59
2023-03-29T19:19:23.287Z,87589.03
2023-03-29T19:21:50.823Z,87600.28
2023-03-29T19:24:18.202Z,87596.88
2023-03-29T19:26:45.733Z,87597.56
2023-03-29T19:29:13.122Z,87592.59
2023-03-29T19:31:40.398Z,87592.59
2023-03-29T19:34:08.673Z,87606.50
2023-03-29T19:36:36.029Z,87611.31
2023-03-29T19:39:04.511Z,87605.19
2023-03-29T19:41:32.120Z,87613.00
2023-03-29T19:43:59.641Z,87608.03
2023-03-29T19:46:27.577Z,87609.47
2023-03-29T19:48:55.816Z,87615.81
2023-03-29T19:51:23.589Z,87616.53
2023-03-29T19:53:51.223Z,87616.16
2023-03-29T19:56:18.817Z,87610.78
2023-03-29T19:58:46.259Z,87597.97
2023-03-29T20:01:13.482Z,87602.91
2023-03-29T20:03:43.510Z,87598.66
2023-03-29T20:06:11.114Z,87603.03
2023-03-29T20:08:38.306Z,87606.72
2023-03-29T20:11:07.015Z,87604.06
2023-03-29T20:13:38.783Z,87609.38
2023-03-29T20:16:16.406Z,87611.97
2023-03-29T20:18:45.607Z,87618.38
2023-03-29T20:21:14.766Z,87624.81
2023-03-29T20:23:42.206Z,87622.50
2023-03-29T20:26:09.732Z,87629.59
2023-03-29T20:28:37.285Z,87632.94
2023-03-29T20:31:07.868Z,87624.13
2023-03-29T20:33:35.939Z,87631.28
2023-03-29T20:36:03.520Z,87634.22
2023-03-29T20:38:30.980Z,87655.22
2023-03-29T20:40:58.765Z,87651.41
2023-03-29T20:43:26.110Z,87645.16
2023-03-29T20:45:54.294Z,87659.41
2023-03-29T20:48:23.589Z,87665.75
2023-03-29T20:50:51.964Z,87661.22
2023-03-29T20:53:19.353Z,87655.09
2023-03-29T20:55:46.509Z,87658.31
2023-03-29T20:58:13.890Z,87670.63
2023-03-29T21:00:41.092Z,87673.25
2023-03-29T21:03:08.618Z,87675.88
2023-03-29T21:05:36.019Z,87678.78
2023-03-29T21:08:03.677Z,87674.25
2023-03-29T21:10:31.164Z,87679.84
2023-03-29T21:12:58.349Z,87678.06
2023-03-29T21:15:27.057Z,87681.91
2023-03-29T21:17:54.287Z,87693.97
2023-03-29T21:20:22.274Z,87699.28
2023-03-29T21:22:49.464Z,87701.91
2023-03-29T21:25:16.983Z,87708.69
2023-03-29T21:27:44.273Z,87695.91
2023-03-29T21:30:12.384Z,87698.53
2023-03-29T21:32:39.861Z,87707.16
2023-03-29T21:35:08.081Z,87706.34
2023-03-29T21:37:35.278Z,87704.44
2023-03-29T21:40:03.099Z,87696.59
2023-03-29T21:42:30.245Z,87711.97
2023-03-29T21:44:57.354Z,87708.94
2023-03-29T21:47:24.834Z,87704.84
2023-03-29T21:49:52.057Z,87699.59
2023-03-29T21:52:19.218Z,87700.69
2023-03-29T21:54:46.580Z,87696.19
2023-03-29T21:57:13.794Z,87701.44
2023-03-29T21:59:41.004Z,87708.97
2023-03-29T22:02:08.265Z,87699.94
2023-03-29T22:04:37.479Z,87692.41
2023-03-29T22:07:06.144Z,87702.56
2023-03-29T22:09:34.865Z,87692.41
2023-03-29T22:12:03.973Z,87692.34
2023-03-29T22:14:33.303Z,87691.59
2023-03-29T22:17:00.914Z,87707.69
2023-03-29T22:19:28.319Z,87704.25
2023-03-29T22:21:55.476Z,87703.91
2023-03-29T22:24:22.807Z,87704.59
2023-03-29T22:26:49.940Z,87703.38
2023-03-29T22:29:17.149Z,87704.88
2023-03-29T22:31:44.328Z,87704.88
2023-03-29T22:34:11.867Z,87701.50
2023-03-29T22:36:39.186Z,87695.78
2023-03-29T22:39:06.613Z,87697.59
2023-03-29T22:41:33.861Z,87699.84
2023-03-29T22:44:01.236Z,87698.63
2023-03-29T22:46:28.541Z,87703.38
2023-03-29T22:48:55.933Z,87711.94
2023-03-29T22:51:23.613Z,87699.84
2023-03-29T22:53:50.854Z,87694.13
2023-03-29T22:56:18.324Z,87693.63
2023-03-29T22:58:46.003Z,87704.50
2023-03-29T23:01:13.514Z,87706.72
2023-03-29T23:03:40.725Z,87708.94
2023-03-29T23:06:08.122Z,87706.63
2023-03-29T23:08:35.390Z,87707.34
2023-03-29T23:11:04.354Z,87711.00
2023-03-29T23:13:32.597Z,87718.09
2023-03-29T23:16:02.136Z,87718.00
2023-03-29T23:18:31.551Z,87717.56
2023-03-29T23:20:59.123Z,87725.41
2023-03-29T23:23:28.456Z,87721.34
2023-03-29T23:25:56.171Z,87711.94
2023-03-29T23:28:26.597Z,87715.69
2023-03-29T23:31:05.142Z,87715.25
2023-03-29T23:33:35.274Z,87717.88
2023-03-29T23:36:06.248Z,87726.44
2023-03-29T23:38:35.767Z,87734.72
2023-03-29T23:41:07.294Z,87738.84
2023-03-29T23:43:37.442Z,87732.88
2023-03-29T23:46:14.520Z,87732.53
2023-03-29T23:48:47.276Z,87737.78
2023-03-29T23:51:15.430Z,87732.47
2023-03-29T23:53:42.800Z,87724.16
2023-03-29T23:56:10.121Z,87731.97
2023-03-29T23:58:38.296Z,87725.88
